Airfield :
LOGIN :

Register | Disclaimer

   EN    FR    IT 

 










Legend :    VFR   Marginal VFR   IFR   Intensive IFR   Very Intensive IFR
Visi :
Ceiling :
>= 8 km
>= 3000ft
5 to 8 km
1000 to 3000 ft
1500m to 5 km
500 to 1000 ft
800 to 1500m
200 to 500 ft
< 800m
< 200 ft
Symbols :   Thunderstorms  Fog  Heavy snow  Heavy precipitations  Wind > 20 kt
SIGMETs :     Misc.  Thunderstorms  Icing  Turbulence  Mountain Waves  Volcanic Ashes






- Airport Elevation : 83 ft
- IATA code : LHR


EGLL - London Heathrow

CURRENT METAR :
  • 102150Z AUTO 25013KT 9999 SCT029 SCT047 09/07 Q1007 NOSIG

EXPIRED METARs :
  • 102120Z AUTO 26017KT 9999 -RA NCD 10/07 Q1006 NOSIG
  • 102050Z AUTO 26018KT 9999 -RA FEW021/// BKN045/// //////TCU 10/08 Q1006 NOSIG
  • 102020Z AUTO 26019G29KT 9999 -RA FEW016/// SCT026/// OVC032/// //////CB 10/09 Q1005 RERA
  • 101950Z AUTO 23018G29KT 190V270 4700 RA SCT009/// BKN012/// BKN017/// //////CB 12/11 Q1004 REDZ TEMPO 6000 -RA SCT012
  • 101920Z AUTO 21018KT 4900 -RADZ BKN010 OVC017 11/11 Q1003 TEMPO RA BKN009

TAF TAF EGLL
Valid from the 10 at 18:00 until the 12 at 00:00 UTC


101704Z 1018/1124 20018G35KT 8000 -RA BKN012
TEMPO 1018/1022 4000 RADZ
PROB30
TEMPO 1018/1021 +RA BKN008
BECMG 1019/1022 26008KT CAVOK
TEMPO 1019/1021 25015G28KT
PROB30 1106/1110 8000
TEMPO 1114/1118 6000 SHRA BKN012CB
PROB30
TEMPO 1114/1116 4000 +SHRAGS



MET'MAP, your aeronautical weather chart ! - Copyright ORBIFLY December 2007 - Disclaimer

ORBIFLY MET'MAP TEAM :

Programming & Development : Alexandra Zaïnal
Concept & original design : Baudouin d'Aumeries
Assistance for programming : Marc-Olivier Méhu
Technical & hardware support : Manuel Goepfert

Contact : metmap@orbifly.com




SOURCES & CREDITS :

   NOAA